sensor_id;sensor_type;location;lat;lon;timestamp;P1;durP1;ratioP1;P2;durP2;ratioP2
7665;SDS011;3875;46.562;4.898;2024-02-21T00:02:17;12.40;;;11.40;;
7665;SDS011;3875;46.562;4.898;2024-02-21T00:04:43;15.90;;;14.70;;
7665;SDS011;3875;46.562;4.898;2024-02-21T00:07:09;12.30;;;11.30;;
7665;SDS011;3875;46.562;4.898;2024-02-21T00:09:34;20.73;;;19.00;;
7665;SDS011;3875;46.562;4.898;2024-02-21T00:12:00;14.97;;;13.77;;
7665;SDS011;3875;46.562;4.898;2024-02-21T00:14:26;19.83;;;18.03;;
7665;SDS011;3875;46.562;4.898;2024-02-21T00:16:52;14.50;;;13.27;;
7665;SDS011;3875;46.562;4.898;2024-02-21T00:19:18;14.83;;;13.40;;
7665;SDS011;3875;46.562;4.898;2024-02-21T00:21:43;15.33;;;14.13;;
7665;SDS011;3875;46.562;4.898;2024-02-21T00:24:09;14.80;;;13.53;;
7665;SDS011;3875;46.562;4.898;2024-02-21T00:26:34;15.63;;;14.57;;
7665;SDS011;3875;46.562;4.898;2024-02-21T00:29:00;14.93;;;13.50;;
7665;SDS011;3875;46.562;4.898;2024-02-21T00:31:26;18.13;;;16.70;;
7665;SDS011;3875;46.562;4.898;2024-02-21T00:33:52;18.10;;;16.60;;
7665;SDS011;3875;46.562;4.898;2024-02-21T00:36:17;21.10;;;19.60;;
7665;SDS011;3875;46.562;4.898;2024-02-21T00:38:43;30.13;;;28.30;;
7665;SDS011;3875;46.562;4.898;2024-02-21T00:41:09;31.30;;;29.43;;
7665;SDS011;3875;46.562;4.898;2024-02-21T00:43:35;36.77;;;34.57;;
7665;SDS011;3875;46.562;4.898;2024-02-21T00:46:01;28.40;;;26.70;;
7665;SDS011;3875;46.562;4.898;2024-02-21T00:48:26;22.80;;;21.17;;
7665;SDS011;3875;46.562;4.898;2024-02-21T00:50:52;48.00;;;45.23;;
7665;SDS011;3875;46.562;4.898;2024-02-21T00:53:17;46.57;;;44.00;;
7665;SDS011;3875;46.562;4.898;2024-02-21T00:55:43;57.40;;;54.13;;
7665;SDS011;3875;46.562;4.898;2024-02-21T00:58:09;43.70;;;41.33;;
7665;SDS011;3875;46.562;4.898;2024-02-21T01:00:34;35.67;;;33.50;;
7665;SDS011;3875;46.562;4.898;2024-02-21T01:03:00;48.83;;;45.87;;
7665;SDS011;3875;46.562;4.898;2024-02-21T01:05:26;39.10;;;36.50;;
7665;SDS011;3875;46.562;4.898;2024-02-21T01:07:54;29.57;;;27.67;;
7665;SDS011;3875;46.562;4.898;2024-02-21T01:10:19;60.27;;;56.63;;
7665;SDS011;3875;46.562;4.898;2024-02-21T01:12:45;50.87;;;48.13;;
7665;SDS011;3875;46.562;4.898;2024-02-21T01:15:11;49.83;;;47.03;;
7665;SDS011;3875;46.562;4.898;2024-02-21T01:17:36;42.33;;;39.80;;
7665;SDS011;3875;46.562;4.898;2024-02-21T01:20:03;39.80;;;37.20;;
7665;SDS011;3875;46.562;4.898;2024-02-21T01:22:30;35.67;;;33.03;;
7665;SDS011;3875;46.562;4.898;2024-02-21T01:24:56;35.13;;;33.03;;
7665;SDS011;3875;46.562;4.898;2024-02-21T01:27:22;38.37;;;36.03;;
7665;SDS011;3875;46.562;4.898;2024-02-21T01:29:47;27.63;;;26.00;;
7665;SDS011;3875;46.562;4.898;2024-02-21T01:32:14;64.93;;;36.83;;
7665;SDS011;3875;46.562;4.898;2024-02-21T01:34:41;25.47;;;23.70;;
7665;SDS011;3875;46.562;4.898;2024-02-21T01:37:06;20.63;;;19.13;;
7665;SDS011;3875;46.562;4.898;2024-02-21T01:39:32;18.27;;;16.90;;
7665;SDS011;3875;46.562;4.898;2024-02-21T01:41:58;17.13;;;15.70;;
7665;SDS011;3875;46.562;4.898;2024-02-21T01:44:24;20.07;;;18.57;;
7665;SDS011;3875;46.562;4.898;2024-02-21T01:46:50;38.30;;;36.07;;
7665;SDS011;3875;46.562;4.898;2024-02-21T01:49:17;47.83;;;45.20;;
7665;SDS011;3875;46.562;4.898;2024-02-21T01:51:44;40.77;;;37.90;;
7665;SDS011;3875;46.562;4.898;2024-02-21T01:54:10;38.73;;;36.47;;
7665;SDS011;3875;46.562;4.898;2024-02-21T01:56:38;40.33;;;37.67;;
7665;SDS011;3875;46.562;4.898;2024-02-21T01:59:04;49.07;;;46.27;;
7665;SDS011;3875;46.562;4.898;2024-02-21T02:01:30;95.53;;;90.10;;
7665;SDS011;3875;46.562;4.898;2024-02-21T02:03:55;98.13;;;92.60;;
7665;SDS011;3875;46.562;4.898;2024-02-21T02:06:22;101.90;;;96.10;;
7665;SDS011;3875;46.562;4.898;2024-02-21T02:08:47;101.13;;;95.50;;
7665;SDS011;3875;46.562;4.898;2024-02-21T02:11:13;44.50;;;41.77;;
7665;SDS011;3875;46.562;4.898;2024-02-21T02:13:40;46.80;;;43.97;;
7665;SDS011;3875;46.562;4.898;2024-02-21T02:16:05;250.20;;;231.10;;
7665;SDS011;3875;46.562;4.898;2024-02-21T02:18:31;43.83;;;41.13;;
7665;SDS011;3875;46.562;4.898;2024-02-21T02:20:57;73.50;;;69.37;;
7665;SDS011;3875;46.562;4.898;2024-02-21T02:23:29;96.87;;;91.40;;
7665;SDS011;3875;46.562;4.898;2024-02-21T02:25:56;55.13;;;51.83;;
7665;SDS011;3875;46.562;4.898;2024-02-21T02:28:22;56.93;;;53.37;;
7665;SDS011;3875;46.562;4.898;2024-02-21T02:30:48;54.57;;;51.30;;
7665;SDS011;3875;46.562;4.898;2024-02-21T02:33:14;47.37;;;44.63;;
7665;SDS011;3875;46.562;4.898;2024-02-21T02:35:42;28.00;;;26.13;;
7665;SDS011;3875;46.562;4.898;2024-02-21T02:38:08;58.67;;;55.33;;
7665;SDS011;3875;46.562;4.898;2024-02-21T02:40:35;169.63;;;157.30;;
7665;SDS011;3875;46.562;4.898;2024-02-21T02:43:01;30.83;;;28.83;;
7665;SDS011;3875;46.562;4.898;2024-02-21T02:45:27;43.80;;;41.23;;
7665;SDS011;3875;46.562;4.898;2024-02-21T02:47:53;25.87;;;24.10;;
7665;SDS011;3875;46.562;4.898;2024-02-21T02:50:19;34.53;;;31.93;;
7665;SDS011;3875;46.562;4.898;2024-02-21T02:52:45;56.90;;;53.63;;
7665;SDS011;3875;46.562;4.898;2024-02-21T02:55:11;41.37;;;38.93;;
7665;SDS011;3875;46.562;4.898;2024-02-21T02:57:37;62.93;;;59.50;;
7665;SDS011;3875;46.562;4.898;2024-02-21T03:00:03;45.53;;;42.83;;
7665;SDS011;3875;46.562;4.898;2024-02-21T03:02:29;116.10;;;108.90;;
7665;SDS011;3875;46.562;4.898;2024-02-21T03:04:56;60.13;;;56.87;;
7665;SDS011;3875;46.562;4.898;2024-02-21T03:07:23;86.27;;;81.53;;
7665;SDS011;3875;46.562;4.898;2024-02-21T03:09:49;182.97;;;169.40;;
7665;SDS011;3875;46.562;4.898;2024-02-21T03:12:15;118.93;;;111.77;;
7665;SDS011;3875;46.562;4.898;2024-02-21T03:14:49;68.87;;;64.77;;
7665;SDS011;3875;46.562;4.898;2024-02-21T03:17:15;46.47;;;43.77;;
7665;SDS011;3875;46.562;4.898;2024-02-21T03:19:40;46.77;;;43.83;;
7665;SDS011;3875;46.562;4.898;2024-02-21T03:22:06;35.43;;;33.37;;
7665;SDS011;3875;46.562;4.898;2024-02-21T03:24:32;32.57;;;30.43;;
7665;SDS011;3875;46.562;4.898;2024-02-21T03:26:58;29.33;;;27.50;;
7665;SDS011;3875;46.562;4.898;2024-02-21T03:29:24;29.63;;;27.70;;
7665;SDS011;3875;46.562;4.898;2024-02-21T03:31:50;19.07;;;17.67;;
7665;SDS011;3875;46.562;4.898;2024-02-21T03:34:16;32.57;;;30.53;;
7665;SDS011;3875;46.562;4.898;2024-02-21T03:36:41;19.53;;;18.17;;
7665;SDS011;3875;46.562;4.898;2024-02-21T03:39:07;13.77;;;12.77;;
7665;SDS011;3875;46.562;4.898;2024-02-21T03:41:34;15.37;;;14.20;;
7665;SDS011;3875;46.562;4.898;2024-02-21T03:44:00;15.33;;;13.97;;
7665;SDS011;3875;46.562;4.898;2024-02-21T03:46:27;24.47;;;22.73;;
7665;SDS011;3875;46.562;4.898;2024-02-21T03:48:52;12.43;;;11.10;;
7665;SDS011;3875;46.562;4.898;2024-02-21T03:51:18;13.27;;;12.07;;
7665;SDS011;3875;46.562;4.898;2024-02-21T03:53:44;11.13;;;10.07;;
7665;SDS011;3875;46.562;4.898;2024-02-21T03:56:10;9.43;;;7.53;;
7665;SDS011;3875;46.562;4.898;2024-02-21T03:58:35;8.03;;;7.30;;
7665;SDS011;3875;46.562;4.898;2024-02-21T04:01:01;8.63;;;7.77;;
7665;SDS011;3875;46.562;4.898;2024-02-21T04:03:28;9.87;;;8.67;;
7665;SDS011;3875;46.562;4.898;2024-02-21T04:05:54;9.17;;;7.90;;
7665;SDS011;3875;46.562;4.898;2024-02-21T04:08:20;10.90;;;9.83;;
7665;SDS011;3875;46.562;4.898;2024-02-21T04:10:47;8.70;;;7.60;;
7665;SDS011;3875;46.562;4.898;2024-02-21T04:13:12;11.37;;;8.07;;
7665;SDS011;3875;46.562;4.898;2024-02-21T04:15:38;8.03;;;6.47;;
7665;SDS011;3875;46.562;4.898;2024-02-21T04:18:04;9.93;;;9.00;;
7665;SDS011;3875;46.562;4.898;2024-02-21T04:20:29;11.33;;;6.53;;
7665;SDS011;3875;46.562;4.898;2024-02-21T04:22:55;9.67;;;8.67;;
7665;SDS011;3875;46.562;4.898;2024-02-21T04:25:21;18.43;;;16.90;;
7665;SDS011;3875;46.562;4.898;2024-02-21T04:27:47;23.67;;;22.00;;
7665;SDS011;3875;46.562;4.898;2024-02-21T04:30:13;13.77;;;12.57;;
7665;SDS011;3875;46.562;4.898;2024-02-21T04:32:39;16.60;;;15.10;;
7665;SDS011;3875;46.562;4.898;2024-02-21T04:35:05;13.73;;;12.27;;
7665;SDS011;3875;46.562;4.898;2024-02-21T04:37:32;16.53;;;15.17;;
7665;SDS011;3875;46.562;4.898;2024-02-21T04:39:58;9.83;;;8.87;;
7665;SDS011;3875;46.562;4.898;2024-02-21T04:42:23;8.53;;;7.60;;
7665;SDS011;3875;46.562;4.898;2024-02-21T04:44:49;11.30;;;10.30;;
7665;SDS011;3875;46.562;4.898;2024-02-21T04:47:15;9.63;;;8.73;;
7665;SDS011;3875;46.562;4.898;2024-02-21T04:49:41;11.63;;;5.93;;
7665;SDS011;3875;46.562;4.898;2024-02-21T04:52:06;11.80;;;10.43;;
7665;SDS011;3875;46.562;4.898;2024-02-21T04:54:32;12.67;;;11.23;;
7665;SDS011;3875;46.562;4.898;2024-02-21T04:57:00;8.90;;;5.00;;
7665;SDS011;3875;46.562;4.898;2024-02-21T04:59:26;9.20;;;8.10;;
7665;SDS011;3875;46.562;4.898;2024-02-21T05:01:51;22.40;;;20.77;;
7665;SDS011;3875;46.562;4.898;2024-02-21T05:04:17;22.83;;;21.17;;
7665;SDS011;3875;46.562;4.898;2024-02-21T05:06:43;18.70;;;17.17;;
7665;SDS011;3875;46.562;4.898;2024-02-21T05:09:09;27.57;;;25.70;;
7665;SDS011;3875;46.562;4.898;2024-02-21T05:11:35;25.43;;;23.70;;
7665;SDS011;3875;46.562;4.898;2024-02-21T05:14:02;10.30;;;9.40;;
7665;SDS011;3875;46.562;4.898;2024-02-21T05:16:29;12.03;;;9.00;;
7665;SDS011;3875;46.562;4.898;2024-02-21T05:18:55;10.63;;;8.57;;
7665;SDS011;3875;46.562;4.898;2024-02-21T05:21:22;13.60;;;12.23;;
7665;SDS011;3875;46.562;4.898;2024-02-21T05:23:49;39.17;;;36.60;;
7665;SDS011;3875;46.562;4.898;2024-02-21T05:26:35;47.03;;;43.77;;
7665;SDS011;3875;46.562;4.898;2024-02-21T05:29:01;26.13;;;24.30;;
7665;SDS011;3875;46.562;4.898;2024-02-21T05:31:26;22.83;;;21.23;;
7665;SDS011;3875;46.562;4.898;2024-02-21T05:34:28;26.00;;;24.20;;
7665;SDS011;3875;46.562;4.898;2024-02-21T05:36:53;28.37;;;26.47;;
7665;SDS011;3875;46.562;4.898;2024-02-21T05:39:19;24.03;;;22.43;;
7665;SDS011;3875;46.562;4.898;2024-02-21T05:41:47;20.77;;;19.10;;
7665;SDS011;3875;46.562;4.898;2024-02-21T05:44:13;22.17;;;20.67;;
7665;SDS011;3875;46.562;4.898;2024-02-21T05:46:39;53.00;;;49.90;;
7665;SDS011;3875;46.562;4.898;2024-02-21T05:49:05;28.67;;;26.67;;
7665;SDS011;3875;46.562;4.898;2024-02-21T05:51:32;23.73;;;21.90;;
7665;SDS011;3875;46.562;4.898;2024-02-21T05:53:58;30.97;;;28.63;;
7665;SDS011;3875;46.562;4.898;2024-02-21T05:56:24;33.23;;;30.80;;
7665;SDS011;3875;46.562;4.898;2024-02-21T05:58:50;50.03;;;47.10;;
7665;SDS011;3875;46.562;4.898;2024-02-21T06:01:16;61.80;;;58.30;;
7665;SDS011;3875;46.562;4.898;2024-02-21T06:03:42;72.87;;;68.37;;
7665;SDS011;3875;46.562;4.898;2024-02-21T06:06:08;111.97;;;105.03;;
7665;SDS011;3875;46.562;4.898;2024-02-21T06:08:34;58.13;;;54.67;;
7665;SDS011;3875;46.562;4.898;2024-02-21T06:11:00;49.27;;;46.27;;
7665;SDS011;3875;46.562;4.898;2024-02-21T06:13:26;104.73;;;98.30;;
7665;SDS011;3875;46.562;4.898;2024-02-21T06:15:52;15.10;;;13.67;;
7665;SDS011;3875;46.562;4.898;2024-02-21T06:18:18;13.67;;;11.57;;
7665;SDS011;3875;46.562;4.898;2024-02-21T06:20:44;12.07;;;10.70;;
7665;SDS011;3875;46.562;4.898;2024-02-21T06:23:11;8.30;;;7.40;;
7665;SDS011;3875;46.562;4.898;2024-02-21T06:25:37;22.47;;;20.93;;
7665;SDS011;3875;46.562;4.898;2024-02-21T06:28:04;35.30;;;32.73;;
7665;SDS011;3875;46.562;4.898;2024-02-21T06:30:30;35.23;;;33.10;;
7665;SDS011;3875;46.562;4.898;2024-02-21T06:32:56;40.50;;;38.13;;
7665;SDS011;3875;46.562;4.898;2024-02-21T06:35:22;30.93;;;28.90;;
7665;SDS011;3875;46.562;4.898;2024-02-21T06:37:51;51.87;;;48.57;;
7665;SDS011;3875;46.562;4.898;2024-02-21T06:40:17;30.13;;;28.20;;
7665;SDS011;3875;46.562;4.898;2024-02-21T06:42:44;28.43;;;26.73;;
7665;SDS011;3875;46.562;4.898;2024-02-21T06:45:10;28.90;;;27.10;;
7665;SDS011;3875;46.562;4.898;2024-02-21T06:47:36;22.50;;;20.97;;
7665;SDS011;3875;46.562;4.898;2024-02-21T06:50:02;24.90;;;22.57;;
7665;SDS011;3875;46.562;4.898;2024-02-21T06:52:27;16.27;;;14.93;;
7665;SDS011;3875;46.562;4.898;2024-02-21T06:54:53;24.97;;;23.27;;
7665;SDS011;3875;46.562;4.898;2024-02-21T06:57:19;23.63;;;22.00;;
7665;SDS011;3875;46.562;4.898;2024-02-21T06:59:44;37.13;;;34.40;;
7665;SDS011;3875;46.562;4.898;2024-02-21T07:02:10;34.93;;;32.97;;
7665;SDS011;3875;46.562;4.898;2024-02-21T07:04:36;31.53;;;29.63;;
7665;SDS011;3875;46.562;4.898;2024-02-21T07:07:02;36.50;;;34.30;;
7665;SDS011;3875;46.562;4.898;2024-02-21T07:09:27;30.43;;;28.03;;
7665;SDS011;3875;46.562;4.898;2024-02-21T07:11:56;24.97;;;23.27;;
7665;SDS011;3875;46.562;4.898;2024-02-21T07:14:27;32.03;;;29.90;;
7665;SDS011;3875;46.562;4.898;2024-02-21T07:16:53;29.70;;;27.87;;
7665;SDS011;3875;46.562;4.898;2024-02-21T07:19:19;32.27;;;30.00;;
7665;SDS011;3875;46.562;4.898;2024-02-21T07:21:45;26.20;;;24.47;;
7665;SDS011;3875;46.562;4.898;2024-02-21T07:24:11;23.07;;;21.47;;
7665;SDS011;3875;46.562;4.898;2024-02-21T07:26:37;26.57;;;24.93;;
7665;SDS011;3875;46.562;4.898;2024-02-21T07:29:07;21.37;;;19.87;;
7665;SDS011;3875;46.562;4.898;2024-02-21T07:31:38;17.97;;;16.63;;
7665;SDS011;3875;46.562;4.898;2024-02-21T07:34:07;20.27;;;18.90;;
7665;SDS011;3875;46.562;4.898;2024-02-21T07:36:33;23.40;;;21.73;;
7665;SDS011;3875;46.562;4.898;2024-02-21T07:39:02;26.17;;;24.50;;
7665;SDS011;3875;46.562;4.898;2024-02-21T07:41:28;23.10;;;21.60;;
7665;SDS011;3875;46.562;4.898;2024-02-21T07:43:55;21.00;;;19.57;;
7665;SDS011;3875;46.562;4.898;2024-02-21T07:46:21;29.80;;;27.90;;
7665;SDS011;3875;46.562;4.898;2024-02-21T07:48:50;26.03;;;23.67;;
7665;SDS011;3875;46.562;4.898;2024-02-21T07:51:15;17.37;;;16.00;;
7665;SDS011;3875;46.562;4.898;2024-02-21T07:53:43;16.07;;;14.83;;
7665;SDS011;3875;46.562;4.898;2024-02-21T07:56:13;22.50;;;21.03;;
7665;SDS011;3875;46.562;4.898;2024-02-21T07:58:40;15.20;;;14.10;;
7665;SDS011;3875;46.562;4.898;2024-02-21T08:01:05;14.97;;;13.80;;
7665;SDS011;3875;46.562;4.898;2024-02-21T08:03:31;17.80;;;16.33;;
7665;SDS011;3875;46.562;4.898;2024-02-21T08:05:57;22.70;;;21.20;;
7665;SDS011;3875;46.562;4.898;2024-02-21T08:08:23;20.07;;;18.53;;
7665;SDS011;3875;46.562;4.898;2024-02-21T08:10:49;27.70;;;26.00;;
7665;SDS011;3875;46.562;4.898;2024-02-21T08:13:16;49.27;;;46.40;;
7665;SDS011;3875;46.562;4.898;2024-02-21T08:15:41;53.30;;;50.27;;
7665;SDS011;3875;46.562;4.898;2024-02-21T08:18:07;41.57;;;39.13;;
7665;SDS011;3875;46.562;4.898;2024-02-21T08:20:33;42.23;;;39.53;;
7665;SDS011;3875;46.562;4.898;2024-02-21T08:22:59;63.97;;;60.40;;
7665;SDS011;3875;46.562;4.898;2024-02-21T08:25:25;62.17;;;58.57;;
7665;SDS011;3875;46.562;4.898;2024-02-21T08:27:51;39.43;;;36.73;;
7665;SDS011;3875;46.562;4.898;2024-02-21T08:30:18;41.30;;;37.67;;
7665;SDS011;3875;46.562;4.898;2024-02-21T08:32:45;80.20;;;75.93;;
7665;SDS011;3875;46.562;4.898;2024-02-21T08:35:10;63.37;;;59.80;;
7665;SDS011;3875;46.562;4.898;2024-02-21T08:37:37;71.80;;;67.90;;
7665;SDS011;3875;46.562;4.898;2024-02-21T08:40:03;83.63;;;79.13;;
7665;SDS011;3875;46.562;4.898;2024-02-21T08:42:38;86.77;;;81.90;;
7665;SDS011;3875;46.562;4.898;2024-02-21T08:45:05;74.53;;;70.50;;
7665;SDS011;3875;46.562;4.898;2024-02-21T08:47:31;80.87;;;76.47;;
7665;SDS011;3875;46.562;4.898;2024-02-21T08:49:57;76.93;;;72.77;;
7665;SDS011;3875;46.562;4.898;2024-02-21T08:52:22;84.67;;;80.30;;
7665;SDS011;3875;46.562;4.898;2024-02-21T08:54:48;80.17;;;75.93;;
7665;SDS011;3875;46.562;4.898;2024-02-21T08:57:15;87.77;;;83.00;;
7665;SDS011;3875;46.562;4.898;2024-02-21T08:59:41;71.57;;;67.53;;
7665;SDS011;3875;46.562;4.898;2024-02-21T09:02:07;71.97;;;68.00;;
7665;SDS011;3875;46.562;4.898;2024-02-21T09:04:34;76.83;;;72.77;;
7665;SDS011;3875;46.562;4.898;2024-02-21T09:06:59;62.93;;;59.60;;
7665;SDS011;3875;46.562;4.898;2024-02-21T09:09:25;85.77;;;81.13;;
7665;SDS011;3875;46.562;4.898;2024-02-21T09:11:51;116.40;;;109.93;;
7665;SDS011;3875;46.562;4.898;2024-02-21T09:14:17;105.97;;;100.03;;
7665;SDS011;3875;46.562;4.898;2024-02-21T09:16:45;133.27;;;125.53;;
7665;SDS011;3875;46.562;4.898;2024-02-21T09:19:11;125.40;;;118.10;;
7665;SDS011;3875;46.562;4.898;2024-02-21T09:21:37;131.00;;;123.33;;
7665;SDS011;3875;46.562;4.898;2024-02-21T09:24:03;161.37;;;151.50;;
7665;SDS011;3875;46.562;4.898;2024-02-21T09:26:30;209.50;;;195.80;;
7665;SDS011;3875;46.562;4.898;2024-02-21T09:28:56;314.77;;;292.07;;
7665;SDS011;3875;46.562;4.898;2024-02-21T09:31:21;125.27;;;117.87;;
7665;SDS011;3875;46.562;4.898;2024-02-21T09:33:47;98.87;;;93.63;;
7665;SDS011;3875;46.562;4.898;2024-02-21T09:36:13;98.40;;;92.97;;
7665;SDS011;3875;46.562;4.898;2024-02-21T09:38:39;98.80;;;93.57;;
7665;SDS011;3875;46.562;4.898;2024-02-21T09:43:42;139.47;;;131.13;;
7665;SDS011;3875;46.562;4.898;2024-02-21T09:46:12;96.03;;;90.77;;
7665;SDS011;3875;46.562;4.898;2024-02-21T09:49:01;81.70;;;77.00;;
7665;SDS011;3875;46.562;4.898;2024-02-21T09:51:38;67.27;;;63.60;;
7665;SDS011;3875;46.562;4.898;2024-02-21T09:54:07;61.30;;;57.50;;
7665;SDS011;3875;46.562;4.898;2024-02-21T09:56:33;66.63;;;62.97;;
7665;SDS011;3875;46.562;4.898;2024-02-21T09:58:58;60.17;;;56.73;;
7665;SDS011;3875;46.562;4.898;2024-02-21T10:01:29;63.80;;;59.87;;
7665;SDS011;3875;46.562;4.898;2024-02-21T10:03:56;58.30;;;54.73;;
7665;SDS011;3875;46.562;4.898;2024-02-21T10:06:22;60.03;;;56.13;;
7665;SDS011;3875;46.562;4.898;2024-02-21T10:08:55;62.60;;;58.97;;
7665;SDS011;3875;46.562;4.898;2024-02-21T10:11:24;57.80;;;54.43;;
7665;SDS011;3875;46.562;4.898;2024-02-21T10:13:50;57.43;;;53.97;;
7665;SDS011;3875;46.562;4.898;2024-02-21T10:16:16;59.10;;;55.03;;
7665;SDS011;3875;46.562;4.898;2024-02-21T10:18:42;50.93;;;47.63;;
7665;SDS011;3875;46.562;4.898;2024-02-21T10:21:07;67.73;;;64.03;;
7665;SDS011;3875;46.562;4.898;2024-02-21T10:23:43;54.10;;;50.80;;
7665;SDS011;3875;46.562;4.898;2024-02-21T10:26:12;55.50;;;52.37;;
7665;SDS011;3875;46.562;4.898;2024-02-21T10:28:39;40.40;;;38.10;;
7665;SDS011;3875;46.562;4.898;2024-02-21T10:31:09;31.20;;;29.30;;
7665;SDS011;3875;46.562;4.898;2024-02-21T10:33:56;32.53;;;29.97;;
7665;SDS011;3875;46.562;4.898;2024-02-21T10:36:23;30.67;;;28.57;;
7665;SDS011;3875;46.562;4.898;2024-02-21T10:38:49;22.93;;;21.23;;
7665;SDS011;3875;46.562;4.898;2024-02-21T10:41:15;40.67;;;38.17;;
7665;SDS011;3875;46.562;4.898;2024-02-21T10:43:45;27.53;;;25.37;;
7665;SDS011;3875;46.562;4.898;2024-02-21T10:46:15;29.30;;;27.17;;
7665;SDS011;3875;46.562;4.898;2024-02-21T10:48:44;26.23;;;24.13;;
7665;SDS011;3875;46.562;4.898;2024-02-21T10:56:22;24.37;;;22.83;;
7665;SDS011;3875;46.562;4.898;2024-02-21T10:58:53;15.20;;;13.77;;
7665;SDS011;3875;46.562;4.898;2024-02-21T11:01:21;11.97;;;10.83;;
7665;SDS011;3875;46.562;4.898;2024-02-21T11:03:47;16.27;;;14.90;;
7665;SDS011;3875;46.562;4.898;2024-02-21T11:06:15;11.23;;;9.10;;
7665;SDS011;3875;46.562;4.898;2024-02-21T11:08:44;6.10;;;4.90;;
7665;SDS011;3875;46.562;4.898;2024-02-21T11:11:11;11.60;;;6.20;;
7665;SDS011;3875;46.562;4.898;2024-02-21T11:13:42;8.20;;;4.43;;
7665;SDS011;3875;46.562;4.898;2024-02-21T11:16:09;10.03;;;6.30;;
7665;SDS011;3875;46.562;4.898;2024-02-21T11:18:38;7.90;;;3.53;;
7665;SDS011;3875;46.562;4.898;2024-02-21T11:21:04;7.17;;;4.13;;
7665;SDS011;3875;46.562;4.898;2024-02-21T11:23:30;5.57;;;3.93;;
7665;SDS011;3875;46.562;4.898;2024-02-21T11:26:06;6.63;;;3.47;;
7665;SDS011;3875;46.562;4.898;2024-02-21T11:28:32;6.90;;;3.53;;
7665;SDS011;3875;46.562;4.898;2024-02-21T11:31:08;5.40;;;1.67;;
7665;SDS011;3875;46.562;4.898;2024-02-21T11:33:42;5.10;;;1.60;;
7665;SDS011;3875;46.562;4.898;2024-02-21T11:36:21;5.40;;;2.73;;
7665;SDS011;3875;46.562;4.898;2024-02-21T11:38:51;3.90;;;1.77;;
7665;SDS011;3875;46.562;4.898;2024-02-21T11:41:18;4.73;;;1.70;;
7665;SDS011;3875;46.562;4.898;2024-02-21T11:43:46;7.77;;;3.47;;
7665;SDS011;3875;46.562;4.898;2024-02-21T11:46:13;4.47;;;1.97;;
7665;SDS011;3875;46.562;4.898;2024-02-21T11:48:40;8.77;;;2.73;;
7665;SDS011;3875;46.562;4.898;2024-02-21T11:51:08;5.67;;;2.60;;
7665;SDS011;3875;46.562;4.898;2024-02-21T11:53:33;7.43;;;2.50;;
7665;SDS011;3875;46.562;4.898;2024-02-21T11:55:59;6.80;;;2.20;;
7665;SDS011;3875;46.562;4.898;2024-02-21T11:58:25;7.13;;;3.60;;
7665;SDS011;3875;46.562;4.898;2024-02-21T12:00:51;5.77;;;2.07;;
7665;SDS011;3875;46.562;4.898;2024-02-21T12:03:17;5.93;;;2.00;;
7665;SDS011;3875;46.562;4.898;2024-02-21T12:05:43;7.20;;;2.57;;
7665;SDS011;3875;46.562;4.898;2024-02-21T12:08:09;5.73;;;2.10;;
7665;SDS011;3875;46.562;4.898;2024-02-21T12:10:35;3.93;;;1.33;;
7665;SDS011;3875;46.562;4.898;2024-02-21T12:13:07;5.10;;;2.10;;
7665;SDS011;3875;46.562;4.898;2024-02-21T12:15:34;4.97;;;1.90;;
7665;SDS011;3875;46.562;4.898;2024-02-21T12:17:59;4.27;;;1.47;;
7665;SDS011;3875;46.562;4.898;2024-02-21T12:20:25;6.10;;;1.90;;
7665;SDS011;3875;46.562;4.898;2024-02-21T12:22:51;4.03;;;1.87;;
7665;SDS011;3875;46.562;4.898;2024-02-21T12:25:19;4.70;;;1.80;;
7665;SDS011;3875;46.562;4.898;2024-02-21T12:27:51;7.77;;;2.43;;
7665;SDS011;3875;46.562;4.898;2024-02-21T12:30:17;4.53;;;1.50;;
7665;SDS011;3875;46.562;4.898;2024-02-21T12:32:44;3.53;;;1.60;;
7665;SDS011;3875;46.562;4.898;2024-02-21T12:35:10;3.77;;;1.40;;
7665;SDS011;3875;46.562;4.898;2024-02-21T12:37:36;3.80;;;1.30;;
7665;SDS011;3875;46.562;4.898;2024-02-21T12:40:04;3.80;;;1.67;;
7665;SDS011;3875;46.562;4.898;2024-02-21T12:42:32;4.90;;;1.90;;
7665;SDS011;3875;46.562;4.898;2024-02-21T12:44:58;4.40;;;1.57;;
7665;SDS011;3875;46.562;4.898;2024-02-21T12:47:24;6.33;;;5.50;;
7665;SDS011;3875;46.562;4.898;2024-02-21T12:49:51;4.60;;;1.57;;
7665;SDS011;3875;46.562;4.898;2024-02-21T12:52:17;5.23;;;1.77;;
7665;SDS011;3875;46.562;4.898;2024-02-21T12:54:44;6.10;;;3.10;;
7665;SDS011;3875;46.562;4.898;2024-02-21T12:57:09;3.80;;;1.40;;
7665;SDS011;3875;46.562;4.898;2024-02-21T12:59:35;4.50;;;1.50;;
7665;SDS011;3875;46.562;4.898;2024-02-21T13:02:01;4.50;;;1.77;;
7665;SDS011;3875;46.562;4.898;2024-02-21T13:04:27;16.30;;;15.20;;
7665;SDS011;3875;46.562;4.898;2024-02-21T13:06:53;5.37;;;1.83;;
7665;SDS011;3875;46.562;4.898;2024-02-21T13:09:20;3.67;;;1.30;;
7665;SDS011;3875;46.562;4.898;2024-02-21T13:11:46;4.70;;;1.60;;
7665;SDS011;3875;46.562;4.898;2024-02-21T13:14:12;4.50;;;2.00;;
7665;SDS011;3875;46.562;4.898;2024-02-21T13:16:37;6.67;;;3.80;;
7665;SDS011;3875;46.562;4.898;2024-02-21T13:19:06;5.20;;;2.23;;
7665;SDS011;3875;46.562;4.898;2024-02-21T13:21:35;6.53;;;5.97;;
7665;SDS011;3875;46.562;4.898;2024-02-21T13:24:01;4.43;;;1.60;;
7665;SDS011;3875;46.562;4.898;2024-02-21T13:26:27;6.47;;;2.00;;
7665;SDS011;3875;46.562;4.898;2024-02-21T13:28:53;4.97;;;1.80;;
7665;SDS011;3875;46.562;4.898;2024-02-21T13:31:19;4.43;;;1.73;;
7665;SDS011;3875;46.562;4.898;2024-02-21T13:33:45;4.67;;;1.73;;
7665;SDS011;3875;46.562;4.898;2024-02-21T13:36:11;4.70;;;1.63;;
7665;SDS011;3875;46.562;4.898;2024-02-21T13:38:37;3.20;;;1.27;;
7665;SDS011;3875;46.562;4.898;2024-02-21T13:41:06;4.30;;;1.43;;
7665;SDS011;3875;46.562;4.898;2024-02-21T13:43:32;9.07;;;2.60;;
7665;SDS011;3875;46.562;4.898;2024-02-21T13:46:01;6.67;;;2.20;;
7665;SDS011;3875;46.562;4.898;2024-02-21T13:48:34;10.70;;;3.77;;
7665;SDS011;3875;46.562;4.898;2024-02-21T13:51:00;53.87;;;50.47;;
7665;SDS011;3875;46.562;4.898;2024-02-21T13:53:28;9.70;;;5.50;;
7665;SDS011;3875;46.562;4.898;2024-02-21T13:55:54;5.57;;;3.07;;
7665;SDS011;3875;46.562;4.898;2024-02-21T13:58:19;6.27;;;3.10;;
7665;SDS011;3875;46.562;4.898;2024-02-21T14:00:46;19.43;;;18.23;;
7665;SDS011;3875;46.562;4.898;2024-02-21T14:03:11;7.03;;;2.27;;
7665;SDS011;3875;46.562;4.898;2024-02-21T14:05:37;5.93;;;1.90;;
7665;SDS011;3875;46.562;4.898;2024-02-21T14:08:04;7.63;;;4.60;;
7665;SDS011;3875;46.562;4.898;2024-02-21T14:10:31;5.77;;;1.83;;
7665;SDS011;3875;46.562;4.898;2024-02-21T14:12:58;5.50;;;1.77;;
7665;SDS011;3875;46.562;4.898;2024-02-21T14:15:24;7.07;;;2.13;;
7665;SDS011;3875;46.562;4.898;2024-02-21T14:17:50;4.90;;;1.50;;
7665;SDS011;3875;46.562;4.898;2024-02-21T14:20:15;4.93;;;1.60;;
7665;SDS011;3875;46.562;4.898;2024-02-21T14:22:41;6.40;;;2.00;;
7665;SDS011;3875;46.562;4.898;2024-02-21T14:25:10;4.70;;;1.67;;
7665;SDS011;3875;46.562;4.898;2024-02-21T14:27:35;8.80;;;2.77;;
7665;SDS011;3875;46.562;4.898;2024-02-21T14:30:01;6.10;;;1.93;;
7665;SDS011;3875;46.562;4.898;2024-02-21T14:32:28;14.80;;;3.57;;
7665;SDS011;3875;46.562;4.898;2024-02-21T14:34:54;3.67;;;1.30;;
7665;SDS011;3875;46.562;4.898;2024-02-21T14:37:19;4.37;;;1.70;;
7665;SDS011;3875;46.562;4.898;2024-02-21T14:39:46;6.40;;;2.67;;
7665;SDS011;3875;46.562;4.898;2024-02-21T14:42:12;6.87;;;1.97;;
7665;SDS011;3875;46.562;4.898;2024-02-21T14:44:38;3.97;;;1.30;;
7665;SDS011;3875;46.562;4.898;2024-02-21T14:47:03;4.80;;;1.47;;
7665;SDS011;3875;46.562;4.898;2024-02-21T14:49:30;4.43;;;1.80;;
7665;SDS011;3875;46.562;4.898;2024-02-21T14:51:55;5.17;;;1.60;;
7665;SDS011;3875;46.562;4.898;2024-02-21T14:54:21;4.17;;;1.47;;
7665;SDS011;3875;46.562;4.898;2024-02-21T14:56:49;4.03;;;1.40;;
7665;SDS011;3875;46.562;4.898;2024-02-21T14:59:15;5.13;;;1.70;;
7665;SDS011;3875;46.562;4.898;2024-02-21T15:01:41;8.50;;;6.53;;